createdAt,value
2018-07-03T00:00:43.857Z,76.67
2018-07-03T00:01:43.774Z,76.01
2018-07-03T00:02:43.709Z,75.24
2018-07-03T00:03:43.625Z,75.72
2018-07-03T00:04:43.552Z,75.81
2018-07-03T00:05:43.471Z,75.91
2018-07-03T00:06:43.400Z,76.10
2018-07-03T00:07:43.320Z,76.48
2018-07-03T00:08:43.251Z,76.77
2018-07-03T00:09:43.171Z,76.96
2018-07-03T00:10:43.103Z,76.10
2018-07-03T00:11:43.017Z,75.72
2018-07-03T00:12:42.945Z,76.39
2018-07-03T00:13:42.863Z,76.96
2018-07-03T00:14:42.796Z,77.25
2018-07-03T00:15:42.716Z,77.40
2018-07-03T00:16:42.643Z,77.40
2018-07-03T00:17:42.561Z,77.49
2018-07-03T00:18:42.495Z,76.86
2018-07-03T00:19:42.409Z,77.40
2018-07-03T00:20:42.341Z,77.59
2018-07-03T00:21:42.258Z,77.59
2018-07-03T00:22:42.186Z,77.82
2018-07-03T00:23:42.102Z,77.34
2018-07-03T00:24:42.083Z,76.29
2018-07-03T00:25:41.951Z,76.06
2018-07-03T00:26:41.884Z,75.20
2018-07-03T00:27:41.806Z,75.01
2018-07-03T00:28:41.732Z,74.63
2018-07-03T00:29:41.646Z,75.40
2018-07-03T00:30:41.580Z,76.06
2018-07-03T00:31:41.495Z,76.92
2018-07-03T00:32:41.428Z,77.11
2018-07-03T00:33:41.341Z,77.49
2018-07-03T00:34:41.277Z,78.35
2018-07-03T00:35:41.192Z,78.44
2018-07-03T00:36:41.127Z,78.64
2018-07-03T00:37:41.040Z,78.06
2018-07-03T00:38:40.969Z,77.97
2018-07-03T00:39:40.886Z,77.78
2018-07-03T00:40:40.813Z,77.11
2018-07-03T00:41:40.733Z,76.73
2018-07-03T00:42:40.670Z,77.01
2018-07-03T00:43:40.579Z,77.49
2018-07-03T00:44:40.509Z,76.92
2018-07-03T00:45:40.427Z,76.92
2018-07-03T00:46:40.357Z,76.92
2018-07-03T00:47:40.275Z,77.78
2018-07-03T00:48:40.209Z,77.59
2018-07-03T00:49:40.122Z,77.40
2018-07-03T00:50:40.053Z,77.69
2018-07-03T00:51:39.971Z,77.49
2018-07-03T00:52:39.901Z,76.25
2018-07-03T00:53:39.820Z,75.87
2018-07-03T00:54:39.749Z,75.59
2018-07-03T00:55:39.667Z,75.59
2018-07-03T00:56:39.596Z,76.06
2018-07-03T00:57:39.512Z,76.40
2018-07-03T00:58:39.452Z,77.07
2018-07-03T00:59:39.359Z,77.74
2018-07-03T01:00:39.291Z,77.83
2018-07-03T01:01:39.206Z,78.50
2018-07-03T01:02:39.145Z,78.03
2018-07-03T01:03:39.053Z,78.69
2018-07-03T01:04:38.982Z,78.22
2018-07-03T01:05:38.898Z,77.93
2018-07-03T01:06:38.835Z,77.64
2018-07-03T01:07:38.746Z,77.93
2018-07-03T01:08:38.679Z,78.31
2018-07-03T01:09:38.598Z,78.31
2018-07-03T01:10:38.521Z,77.83
2018-07-03T01:11:38.441Z,77.55
2018-07-03T01:12:38.381Z,77.36
2018-07-03T01:13:38.288Z,77.64
2018-07-03T01:14:38.223Z,77.93
2018-07-03T01:15:38.135Z,78.03
2018-07-03T01:16:38.070Z,78.50
2018-07-03T01:17:37.983Z,78.59
2018-07-03T01:18:37.909Z,78.41
2018-07-03T01:19:37.831Z,78.78
2018-07-03T01:20:37.758Z,78.69
2018-07-03T01:21:37.676Z,78.44
2018-07-03T01:22:37.607Z,78.73
2018-07-03T01:23:37.524Z,78.64
2018-07-03T01:24:37.455Z,78.16
2018-07-03T01:25:37.371Z,77.49
2018-07-03T01:26:37.304Z,77.40
2018-07-03T01:27:37.220Z,77.69
2018-07-03T01:28:37.148Z,76.54
2018-07-03T01:29:37.062Z,76.59
2018-07-03T01:30:36.994Z,76.69
2018-07-03T01:31:36.914Z,76.69
2018-07-03T01:32:36.844Z,77.26
2018-07-03T01:33:36.757Z,77.55
2018-07-03T01:34:36.689Z,78.50
2018-07-03T01:35:36.609Z,78.78
2018-07-03T01:36:36.534Z,79.46
2018-07-03T01:37:36.452Z,79.64
2018-07-03T01:38:36.387Z,79.74
2018-07-03T01:39:36.301Z,79.83
2018-07-03T01:40:36.226Z,79.46
2018-07-03T01:41:36.145Z,79.27
2018-07-03T01:42:36.077Z,79.17
2018-07-03T01:43:35.992Z,78.59
2018-07-03T01:44:35.921Z,77.45
2018-07-03T01:45:35.837Z,77.36
2018-07-03T01:46:35.769Z,77.93
2018-07-03T01:47:35.685Z,78.59
2018-07-03T01:48:35.616Z,78.37
2018-07-03T01:49:35.532Z,79.46
2018-07-03T01:50:35.462Z,79.03
2018-07-03T01:51:35.379Z,79.70
2018-07-03T01:52:35.309Z,80.41
2018-07-03T01:53:35.225Z,80.41
2018-07-03T01:54:35.155Z,80.22
2018-07-03T01:55:35.071Z,79.83
2018-07-03T01:56:35.002Z,79.64
2018-07-03T01:57:34.918Z,80.22
2018-07-03T01:58:34.850Z,79.83
2018-07-03T01:59:34.765Z,79.36
2018-07-03T02:00:34.695Z,79.55
2018-07-03T02:01:34.613Z,79.17
2018-07-03T02:02:34.541Z,78.41
2018-07-03T02:03:34.457Z,78.69
2018-07-03T02:04:34.388Z,78.94
2018-07-03T02:05:34.302Z,79.03
2018-07-03T02:06:34.234Z,78.75
2018-07-03T02:07:34.150Z,78.75
2018-07-03T02:08:34.078Z,79.13
2018-07-03T02:09:33.995Z,78.37
2018-07-03T02:10:33.927Z,78.37
2018-07-03T02:11:33.841Z,78.08
2018-07-03T02:12:33.773Z,78.52
2018-07-03T02:13:33.692Z,79.19
2018-07-03T02:14:33.620Z,80.04
2018-07-03T02:15:33.535Z,81.18
2018-07-03T02:16:33.468Z,81.56
2018-07-03T02:17:33.384Z,82.23
2018-07-03T02:18:33.314Z,82.42
2018-07-03T02:19:33.227Z,82.04
2018-07-03T02:20:33.165Z,82.04
2018-07-03T02:21:33.076Z,82.32
2018-07-03T02:22:33.010Z,81.09
2018-07-03T02:23:32.919Z,80.80
2018-07-03T02:24:32.850Z,81.66
2018-07-03T02:25:32.766Z,82.04
2018-07-03T02:26:32.696Z,82.04
2018-07-03T02:27:32.612Z,81.95
2018-07-03T02:28:32.546Z,81.95
2018-07-03T02:29:32.457Z,82.14
2018-07-03T02:30:32.387Z,82.04
2018-07-03T02:31:32.305Z,81.51
2018-07-03T02:32:32.233Z,80.99
2018-07-03T02:33:32.149Z,79.57
2018-07-03T02:34:32.081Z,79.57
2018-07-03T02:35:31.995Z,79.28
2018-07-03T02:36:31.921Z,79.94
2018-07-03T02:37:31.844Z,80.90
2018-07-03T02:38:31.770Z,81.76
2018-07-03T02:39:31.690Z,82.23
2018-07-03T02:40:31.619Z,82.04
2018-07-03T02:41:31.534Z,81.66
2018-07-03T02:42:31.464Z,82.04
2018-07-03T02:43:31.381Z,82.61
2018-07-03T02:44:31.311Z,82.04
2018-07-03T02:45:31.225Z,82.23
2018-07-03T02:46:31.151Z,81.66
2018-07-03T02:47:31.071Z,82.14
2018-07-03T02:48:31.000Z,81.85
2018-07-03T02:49:30.917Z,81.56
2018-07-03T02:50:30.856Z,81.18
2018-07-03T02:51:30.766Z,81.28
2018-07-03T02:52:30.696Z,80.99
2018-07-03T02:53:30.608Z,81.18
2018-07-03T02:54:30.539Z,81.37
2018-07-03T02:55:30.454Z,81.95
2018-07-03T02:56:30.383Z,82.99
2018-07-03T02:57:30.301Z,83.52
2018-07-03T02:58:30.228Z,83.23
2018-07-03T02:59:30.147Z,83.28
2018-07-03T03:00:30.076Z,83.28
2018-07-03T03:01:29.991Z,82.90
2018-07-03T03:02:29.921Z,81.81
2018-07-03T03:03:29.836Z,82.09
2018-07-03T03:04:29.769Z,82.57
2018-07-03T03:05:29.686Z,83.04
2018-07-03T03:06:29.612Z,84.00
2018-07-03T03:07:29.527Z,83.81
2018-07-03T03:08:29.461Z,83.90
2018-07-03T03:09:29.369Z,83.42
2018-07-03T03:10:29.401Z,83.28
2018-07-03T03:11:29.216Z,82.04
2018-07-03T03:12:29.149Z,82.28
2018-07-03T03:13:29.065Z,81.43
2018-07-03T03:14:29.017Z,81.43
2018-07-03T03:15:28.909Z,83.04
2018-07-03T03:16:28.925Z,83.23
2018-07-03T03:17:28.752Z,83.62
2018-07-03T03:18:28.736Z,84.38
2018-07-03T03:19:28.598Z,84.85
2018-07-03T03:20:28.542Z,84.66
2018-07-03T03:21:28.443Z,85.33
2018-07-03T03:22:28.402Z,85.24
2018-07-03T03:23:28.289Z,84.56
2018-07-03T03:24:28.261Z,84.19
2018-07-03T03:25:28.133Z,83.23
2018-07-03T03:26:28.171Z,83.14
2018-07-03T03:27:27.984Z,83.23
2018-07-03T03:28:27.911Z,83.90
2018-07-03T03:29:27.823Z,84.28
2018-07-03T03:30:27.787Z,83.90
2018-07-03T03:31:27.672Z,84.28
2018-07-03T03:32:27.699Z,83.90
2018-07-03T03:33:27.513Z,83.14
2018-07-03T03:34:27.505Z,83.37
2018-07-03T03:35:27.359Z,82.99
2018-07-03T03:36:27.315Z,82.76
2018-07-03T03:37:27.205Z,82.28
2018-07-03T03:38:27.134Z,83.23
2018-07-03T03:39:27.052Z,83.90
2018-07-03T03:40:27.034Z,84.09
2018-07-03T03:41:26.897Z,84.66
2018-07-03T03:42:26.829Z,84.95
2018-07-03T03:43:26.745Z,84.85
2018-07-03T03:44:26.752Z,84.95
2018-07-03T03:45:26.592Z,84.38
2018-07-03T03:46:26.561Z,84.76
2018-07-03T03:47:26.427Z,85.14
2018-07-03T03:48:26.363Z,84.85
2018-07-03T03:49:26.273Z,85.52
2018-07-03T03:50:26.207Z,85.47
2018-07-03T03:51:26.120Z,85.80
2018-07-03T03:52:26.089Z,85.14
2018-07-03T03:53:26.006Z,85.42
2018-07-03T03:54:25.998Z,85.71
2018-07-03T03:55:25.814Z,86.05
2018-07-03T03:56:25.807Z,85.47
2018-07-03T03:57:25.656Z,84.85
2018-07-03T03:58:25.617Z,84.85
2018-07-03T03:59:25.500Z,84.85
2018-07-03T04:00:25.534Z,84.95
2018-07-03T04:01:25.343Z,85.24
2018-07-03T04:02:25.337Z,85.86
2018-07-03T04:03:25.194Z,86.47
2018-07-03T04:04:25.141Z,86.18
2018-07-03T04:05:25.035Z,86.24
2018-07-03T04:06:25.052Z,86.76
2018-07-03T04:07:24.888Z,87.09
2018-07-03T04:08:24.860Z,87.52
2018-07-03T04:09:24.724Z,87.23
2018-07-03T04:10:24.656Z,87.13
2018-07-03T04:11:24.574Z,87.80
2018-07-03T04:12:24.503Z,87.99
2018-07-03T04:13:24.413Z,87.71
2018-07-03T04:14:24.347Z,87.80
2018-07-03T04:15:24.259Z,87.52
2018-07-03T04:16:24.195Z,87.23
2018-07-03T04:17:24.105Z,87.42
2018-07-03T04:18:24.107Z,87.04
2018-07-03T04:19:23.948Z,87.71
2018-07-03T04:20:23.914Z,87.90
2018-07-03T04:21:23.791Z,88.75
2018-07-03T04:22:23.825Z,88.94
2018-07-03T04:23:23.675Z,88.89
2018-07-03T04:24:23.566Z,89.08
2018-07-03T04:25:23.481Z,89.37
2018-07-03T04:26:23.417Z,89.56
2018-07-03T04:27:23.331Z,89.18
2018-07-03T04:28:23.257Z,89.70
2018-07-03T04:29:23.174Z,89.08
2018-07-03T04:30:23.104Z,88.89
2018-07-03T04:31:23.021Z,88.04
2018-07-03T04:32:22.942Z,87.94
2018-07-03T04:33:22.861Z,87.75
2018-07-03T04:34:22.793Z,87.85
2018-07-03T04:35:22.707Z,88.51
2018-07-03T04:36:22.653Z,88.70
2018-07-03T04:37:22.551Z,88.70
2018-07-03T04:38:22.481Z,88.99
2018-07-03T04:39:22.396Z,89.37
2018-07-03T04:40:22.318Z,89.84
2018-07-03T04:41:22.343Z,90.65
2018-07-03T04:42:22.227Z,91.31
2018-07-03T04:43:22.085Z,90.75
2018-07-03T04:44:22.124Z,89.22
2018-07-03T04:45:21.981Z,88.08
2018-07-03T04:46:22.150Z,88.08
2018-07-03T04:47:21.948Z,87.98
2018-07-03T04:48:21.968Z,87.79
2018-07-03T04:49:21.621Z,88.08
2018-07-03T04:50:21.745Z,88.08
2018-07-03T04:51:21.705Z,87.79
2018-07-03T04:52:21.647Z,87.23
2018-07-03T04:53:21.616Z,86.36
2018-07-03T04:54:21.487Z,86.55
2018-07-03T04:55:21.200Z,86.41
2018-07-03T04:56:21.382Z,87.07
2018-07-03T04:57:21.341Z,87.55
2018-07-03T04:58:21.027Z,87.07
2018-07-03T04:59:20.907Z,87.74
2018-07-03T05:00:20.770Z,87.93
2018-07-03T05:01:20.701Z,88.12
2018-07-03T05:02:20.614Z,88.22
2018-07-03T05:03:20.612Z,88.51
2018-07-03T05:04:20.459Z,88.31
2018-07-03T05:05:20.391Z,88.89
2018-07-03T05:06:20.307Z,89.36
2018-07-03T05:07:20.237Z,89.84
2018-07-03T05:08:20.153Z,89.07
2018-07-03T05:09:20.137Z,88.98
2018-07-03T05:10:20.013Z,89.12
2018-07-03T05:11:19.946Z,88.36
2018-07-03T05:12:19.844Z,88.26
2018-07-03T05:13:19.856Z,87.98
2018-07-03T05:14:19.689Z,89.12
2018-07-03T05:15:19.667Z,89.22
2018-07-03T05:16:19.536Z,89.31
2018-07-03T05:17:19.582Z,89.50
2018-07-03T05:18:19.381Z,88.93
2018-07-03T05:19:19.382Z,89.60
2018-07-03T05:20:19.226Z,89.03
2018-07-03T05:21:19.191Z,89.69
2018-07-03T05:22:19.075Z,88.93
2018-07-03T05:23:19.104Z,88.84
2018-07-03T05:24:18.918Z,88.93
2018-07-03T05:25:19.940Z,88.50
2018-07-03T05:26:18.764Z,88.40
2018-07-03T05:27:20.772Z,87.07
2018-07-03T05:28:18.624Z,88.21
2018-07-03T05:29:19.554Z,87.93
2018-07-03T05:30:18.456Z,87.35
2018-07-03T05:31:18.444Z,86.98
2018-07-03T05:32:18.308Z,87.16
2018-07-03T05:33:18.248Z,87.35
2018-07-03T05:34:18.148Z,87.11
2018-07-03T05:35:18.161Z,87.49
2018-07-03T05:36:17.997Z,87.35
2018-07-03T05:37:17.991Z,87.21
2018-07-03T05:38:17.836Z,87.11
2018-07-03T05:39:17.877Z,86.73
2018-07-03T05:40:17.689Z,86.92
2018-07-03T05:41:17.685Z,85.39
2018-07-03T05:42:17.535Z,85.21
2018-07-03T05:43:17.495Z,83.87
2018-07-03T05:44:17.381Z,84.20
2018-07-03T05:45:17.405Z,85.05
2018-07-03T05:46:17.235Z,86.49
2018-07-03T05:47:17.418Z,86.58
2018-07-03T05:48:17.076Z,86.20
2018-07-03T05:49:17.019Z,85.34
2018-07-03T05:50:16.922Z,85.10
2018-07-03T05:51:16.931Z,84.62
2018-07-03T05:52:16.776Z,83.09
2018-07-03T05:53:16.836Z,83.09
2018-07-03T05:54:16.632Z,82.52
2018-07-03T05:55:16.651Z,81.95
2018-07-03T05:56:16.512Z,80.90
2018-07-03T05:57:16.462Z,80.99
2018-07-03T05:58:16.312Z,80.99
2018-07-03T05:59:16.268Z,80.27
2018-07-03T06:00:16.159Z,79.60
2018-07-03T06:01:16.178Z,78.26
2018-07-03T06:02:16.007Z,77.40
2018-07-03T06:03:15.981Z,75.59
2018-07-03T06:04:15.854Z,74.82
2018-07-03T06:05:15.895Z,73.77
2018-07-03T06:06:15.702Z,73.96
2018-07-03T06:07:15.704Z,73.61
2018-07-03T06:08:15.551Z,73.99
2018-07-03T06:09:15.591Z,73.61
2018-07-03T06:10:15.402Z,74.76
2018-07-03T06:11:15.423Z,74.66
2018-07-03T06:12:15.248Z,74.48
2018-07-03T06:13:15.235Z,74.19
2018-07-03T06:14:15.093Z,74.22
2018-07-03T06:15:15.041Z,72.98
2018-07-03T06:16:14.968Z,72.79
2018-07-03T06:17:14.953Z,72.41
2018-07-03T06:18:14.792Z,72.31
2018-07-03T06:19:14.762Z,72.41
2018-07-03T06:20:14.639Z,70.78
2018-07-03T06:21:14.670Z,69.67
2018-07-03T06:22:14.492Z,69.76
2018-07-03T06:23:14.476Z,69.09
2018-07-03T06:24:14.339Z,68.04
2018-07-03T06:25:14.270Z,68.04
2018-07-03T06:26:14.187Z,68.13
2018-07-03T06:27:14.199Z,69.13
2018-07-03T06:28:14.037Z,71.81
2018-07-03T06:29:14.011Z,72.00
2018-07-03T06:30:13.891Z,70.85
2018-07-03T06:31:13.917Z,70.95
2018-07-03T06:32:13.736Z,69.13
2018-07-03T06:33:13.726Z,67.79
2018-07-03T06:34:13.585Z,64.92
2018-07-03T06:35:13.535Z,64.18
2018-07-03T06:36:13.429Z,63.89
2018-07-03T06:37:13.446Z,62.84
2018-07-03T06:38:13.283Z,61.69
2018-07-03T06:39:13.253Z,61.02
2018-07-03T06:40:13.130Z,61.21
2018-07-03T06:41:13.166Z,60.67
2018-07-03T06:42:12.987Z,60.73
2018-07-03T06:43:12.972Z,60.76
2018-07-03T06:44:12.833Z,60.96
2018-07-03T06:45:12.960Z,61.24
2018-07-03T06:46:12.684Z,60.76
2018-07-03T06:47:12.691Z,60.19
2018-07-03T06:48:12.537Z,59.80
2018-07-03T06:49:12.499Z,59.83
2018-07-03T06:50:12.388Z,60.79
2018-07-03T06:51:12.411Z,60.79
2018-07-03T06:52:12.237Z,59.45
2018-07-03T06:53:12.216Z,59.64
2018-07-03T06:54:12.087Z,59.16
2018-07-03T06:55:12.131Z,60.31
2018-07-03T06:56:11.936Z,60.31
2018-07-03T06:57:11.938Z,60.70
2018-07-03T06:58:11.790Z,61.21
2018-07-03T06:59:11.748Z,60.82
2018-07-03T07:00:11.636Z,60.15
2018-07-03T07:01:11.658Z,59.19
2018-07-03T07:02:11.492Z,58.71
2018-07-03T07:03:11.466Z,58.23
2018-07-03T07:04:11.342Z,58.04
2018-07-03T07:05:11.380Z,57.46
2018-07-03T07:06:11.194Z,57.11
2018-07-03T07:07:11.185Z,56.53
2018-07-03T07:08:11.049Z,57.78
2018-07-03T07:09:11.013Z,55.57
2018-07-03T07:10:10.898Z,54.42
2018-07-03T07:11:10.905Z,54.04
2018-07-03T07:12:10.750Z,54.33
2018-07-03T07:13:10.711Z,56.46
2018-07-03T07:14:10.602Z,56.85
2018-07-03T07:15:10.625Z,55.69
2018-07-03T07:16:10.460Z,55.99
2018-07-03T07:17:10.433Z,57.07
2018-07-03T07:18:10.307Z,55.53
2018-07-03T07:19:10.345Z,55.34
2018-07-03T07:20:10.165Z,55.05
2018-07-03T07:21:10.152Z,54.00
2018-07-03T07:22:10.013Z,54.96
2018-07-03T07:23:10.011Z,54.28
2018-07-03T07:24:09.867Z,53.25
2018-07-03T07:25:09.872Z,54.02
2018-07-03T07:26:09.722Z,56.04
2018-07-03T07:27:09.678Z,54.12
2018-07-03T07:28:09.575Z,53.74
2018-07-03T07:29:09.633Z,53.83
2018-07-03T07:30:09.428Z,54.14
2018-07-03T07:31:09.399Z,51.74
2018-07-03T07:32:09.281Z,52.80
2018-07-03T07:33:09.308Z,53.28
2018-07-03T07:34:09.136Z,54.05
2018-07-03T07:35:09.121Z,53.88
2018-07-03T07:36:08.990Z,52.92
2018-07-03T07:37:09.028Z,52.25
2018-07-03T07:38:08.844Z,51.67
2018-07-03T07:39:08.837Z,52.73
2018-07-03T07:40:08.699Z,54.78
2018-07-03T07:41:08.652Z,53.81
2018-07-03T07:42:08.554Z,54.30
2018-07-03T07:43:08.557Z,53.81
2018-07-03T07:44:08.408Z,54.13
2018-07-03T07:45:08.367Z,54.90
2018-07-03T07:46:08.265Z,52.87
2018-07-03T07:47:08.281Z,50.76
2018-07-03T07:48:08.123Z,50.18
2018-07-03T07:49:08.339Z,49.91
2018-07-03T07:50:07.985Z,49.82
2018-07-03T07:51:07.998Z,50.30
2018-07-03T07:52:07.851Z,52.81
2018-07-03T07:53:07.805Z,53.29
2018-07-03T07:54:07.691Z,50.11
2018-07-03T07:55:07.718Z,49.34
2018-07-03T07:56:07.548Z,51.46
2018-07-03T07:57:07.484Z,50.21
2018-07-03T07:58:07.404Z,49.34
2018-07-03T07:59:07.441Z,53.03
2018-07-03T08:00:07.265Z,52.45
2018-07-03T08:01:07.243Z,51.10
2018-07-03T08:02:07.117Z,50.71
2018-07-03T08:03:07.157Z,51.68
2018-07-03T08:04:06.980Z,51.00
2018-07-03T08:05:06.918Z,50.93
2018-07-03T08:06:06.837Z,50.74
2018-07-03T08:07:06.874Z,51.99
2018-07-03T08:08:06.699Z,51.73
2018-07-03T08:09:06.682Z,50.38
2018-07-03T08:10:06.554Z,50.96
2018-07-03T08:11:06.593Z,48.06
2018-07-03T08:12:06.414Z,49.70
2018-07-03T08:13:06.401Z,50.96
2018-07-03T08:14:06.273Z,52.01
2018-07-03T08:15:06.314Z,50.09
2018-07-03T08:16:06.132Z,48.86
2018-07-03T08:17:06.120Z,47.12
2018-07-03T08:18:05.993Z,47.38
2018-07-03T08:19:06.041Z,47.02
2018-07-03T08:20:05.852Z,47.80
2018-07-03T08:21:05.843Z,49.63
2018-07-03T08:22:05.714Z,49.92
2018-07-03T08:23:05.751Z,48.39
2018-07-03T08:24:05.573Z,48.79
2018-07-03T08:25:05.512Z,48.97
2018-07-03T08:26:05.434Z,46.85
2018-07-03T08:27:05.470Z,47.36
2018-07-03T08:28:05.296Z,48.42
2018-07-03T08:29:05.283Z,48.42
2018-07-03T08:30:05.156Z,46.10
2018-07-03T08:31:05.188Z,47.84
2018-07-03T08:32:05.019Z,47.16
2018-07-03T08:33:04.997Z,47.84
2018-07-03T08:34:04.946Z,47.45
2018-07-03T08:35:05.732Z,47.19
2018-07-03T08:36:04.741Z,47.19
2018-07-03T08:37:04.718Z,47.28
2018-07-03T08:38:04.607Z,43.51
2018-07-03T08:39:04.633Z,44.09
2018-07-03T08:40:04.464Z,44.26
2018-07-03T08:41:04.437Z,44.67
2018-07-03T08:42:04.330Z,44.87
2018-07-03T08:43:04.348Z,44.87
2018-07-03T08:44:04.190Z,43.32
2018-07-03T08:45:04.156Z,43.41
2018-07-03T08:46:04.052Z,43.41
2018-07-03T08:47:04.068Z,45.16
2018-07-03T08:48:03.917Z,45.83
2018-07-03T08:49:03.876Z,43.44
2018-07-03T08:50:03.786Z,43.92
2018-07-03T08:51:03.785Z,44.21
2018-07-03T08:52:03.702Z,44.50
2018-07-03T08:53:03.595Z,44.81
2018-07-03T08:54:03.510Z,46.46
2018-07-03T08:55:03.513Z,44.91
2018-07-03T08:56:03.376Z,43.55
2018-07-03T08:57:03.418Z,43.37
2018-07-03T08:58:03.239Z,40.48
2018-07-03T08:59:03.227Z,41.72
2018-07-03T09:00:03.102Z,43.58
2018-07-03T09:01:03.137Z,43.29
2018-07-03T09:02:02.964Z,41.45
2018-07-03T09:03:02.945Z,42.90
2018-07-03T09:04:02.831Z,40.96
2018-07-03T09:05:02.858Z,39.12
2018-07-03T09:06:02.696Z,38.45
2018-07-03T09:07:02.664Z,40.48
2018-07-03T09:08:02.563Z,41.16
2018-07-03T09:09:02.577Z,41.93
2018-07-03T09:10:02.431Z,42.14
2018-07-03T09:11:02.384Z,39.43
2018-07-03T09:12:02.290Z,38.37
2018-07-03T09:13:02.295Z,37.81
2018-07-03T09:14:02.161Z,39.43
2018-07-03T09:15:02.206Z,41.76
2018-07-03T09:16:02.029Z,43.04
2018-07-03T09:17:02.014Z,41.88
2018-07-03T09:18:01.917Z,40.71
2018-07-03T09:19:01.926Z,40.03
2018-07-03T09:20:01.755Z,40.54
2018-07-03T09:21:01.734Z,40.64
2018-07-03T09:22:01.624Z,41.70
2018-07-03T09:23:01.645Z,41.99
2018-07-03T09:24:01.488Z,41.24
2018-07-03T09:25:01.453Z,42.89
2018-07-03T09:26:01.357Z,41.24
2018-07-03T09:27:01.364Z,41.92
2018-07-03T09:28:01.222Z,41.64
2018-07-03T09:29:01.171Z,38.93
2018-07-03T09:30:01.090Z,35.92
2018-07-03T09:31:01.086Z,33.49
2018-07-03T09:32:00.957Z,33.88
2018-07-03T09:33:00.991Z,32.42
2018-07-03T09:34:00.820Z,34.83
2018-07-03T09:35:00.809Z,36.89
2018-07-03T09:36:00.692Z,34.35
2018-07-03T09:37:00.714Z,33.28
2018-07-03T09:38:00.557Z,34.25
2018-07-03T09:39:00.522Z,33.29
2018-07-03T09:40:00.427Z,33.86
2018-07-03T09:41:00.433Z,33.69
2018-07-03T09:42:00.297Z,33.88
2018-07-03T09:43:00.344Z,32.04
2018-07-03T09:44:00.160Z,35.05
2018-07-03T09:45:00.153Z,31.84
2018-07-03T09:46:00.029Z,32.41
2018-07-03T09:47:00.063Z,33.76
2018-07-03T09:47:59.899Z,35.53
2018-07-03T09:48:59.872Z,34.85
2018-07-03T09:49:59.765Z,32.42
2018-07-03T09:50:59.784Z,31.65
2018-07-03T09:51:59.630Z,32.81
2018-07-03T09:52:59.593Z,30.85
2018-07-03T09:53:59.505Z,32.41
2018-07-03T09:54:59.532Z,34.64
2018-07-03T09:55:59.372Z,34.06
2018-07-03T09:56:59.315Z,34.36
2018-07-03T09:57:59.239Z,34.36
2018-07-03T09:58:59.181Z,32.99
2018-07-03T09:59:59.107Z,32.71
2018-07-03T10:00:59.048Z,33.49
2018-07-03T10:01:58.976Z,32.71
2018-07-03T10:02:58.920Z,32.04
2018-07-03T10:03:58.846Z,31.84
2018-07-03T10:04:58.787Z,31.95
2018-07-03T10:05:58.714Z,32.73
2018-07-03T10:06:58.658Z,32.82
2018-07-03T10:07:58.584Z,31.66
2018-07-03T10:08:58.531Z,31.66
2018-07-03T10:09:58.451Z,31.85
2018-07-03T10:10:58.397Z,31.57
2018-07-03T10:11:58.324Z,33.99
2018-07-03T10:12:58.314Z,31.48
2018-07-03T10:13:58.193Z,33.23
2018-07-03T10:14:58.134Z,31.48
2018-07-03T10:15:58.064Z,32.45
2018-07-03T10:16:58.006Z,34.30
2018-07-03T10:17:57.930Z,32.17
2018-07-03T10:18:57.949Z,32.94
2018-07-03T10:19:57.799Z,33.62
2018-07-03T10:20:57.743Z,34.32
2018-07-03T10:21:57.670Z,35.47
2018-07-03T10:22:57.616Z,37.24
2018-07-03T10:23:57.539Z,35.49
2018-07-03T10:24:57.482Z,33.06
2018-07-03T10:25:57.411Z,33.25
2018-07-03T10:26:57.351Z,30.91
2018-07-03T10:27:57.278Z,30.62
2018-07-03T10:28:57.221Z,30.52
2018-07-03T10:29:57.149Z,31.60
2018-07-03T10:30:57.093Z,32.28
2018-07-03T10:31:57.022Z,31.60
2018-07-03T10:32:56.964Z,31.50
2018-07-03T10:33:56.890Z,31.40
2018-07-03T10:34:56.832Z,29.44
2018-07-03T10:35:56.762Z,29.65
2018-07-03T10:36:56.700Z,31.98
2018-07-03T10:37:56.630Z,32.18
2018-07-03T10:38:56.576Z,32.37
2018-07-03T10:39:56.501Z,30.33
2018-07-03T10:40:56.449Z,28.30
2018-07-03T10:41:56.372Z,27.70
2018-07-03T10:42:56.314Z,28.69
2018-07-03T10:43:56.238Z,27.80
2018-07-03T10:44:56.187Z,27.23
2018-07-03T10:45:56.112Z,26.36
2018-07-03T10:46:56.060Z,26.75
2018-07-03T10:47:55.982Z,27.92
2018-07-03T10:48:55.927Z,29.28
2018-07-03T10:49:55.853Z,31.61
2018-07-03T10:50:55.809Z,31.22
2018-07-03T10:51:55.730Z,30.46
2018-07-03T10:52:55.665Z,30.26
2018-07-03T10:53:55.598Z,29.49
2018-07-03T10:54:55.546Z,31.92
2018-07-03T10:55:55.468Z,33.69
2018-07-03T10:56:55.411Z,32.71
2018-07-03T10:57:55.339Z,31.84
2018-07-03T10:58:55.286Z,32.81
2018-07-03T10:59:55.211Z,32.42
2018-07-03T11:00:55.157Z,32.71
2018-07-03T11:01:55.084Z,29.79
2018-07-03T11:02:55.027Z,28.92
2018-07-03T11:03:54.958Z,28.04
2018-07-03T11:04:54.899Z,27.75
2018-07-03T11:05:54.824Z,28.14
2018-07-03T11:06:54.773Z,29.89
2018-07-03T11:07:54.701Z,30.28
2018-07-03T11:08:54.639Z,32.03
2018-07-03T11:09:54.569Z,34.08
2018-07-03T11:10:54.512Z,29.71
2018-07-03T11:11:54.443Z,29.13
2018-07-03T11:12:54.386Z,31.64
2018-07-03T11:13:54.354Z,28.82
2018-07-03T11:14:54.263Z,27.26
2018-07-03T11:15:54.182Z,26.09
2018-07-03T11:16:54.130Z,27.44
2018-07-03T11:17:54.056Z,28.82
2018-07-03T11:18:54.007Z,27.75
2018-07-03T11:19:54.055Z,30.18
2018-07-03T11:20:53.872Z,29.11
2018-07-03T11:21:53.803Z,27.65
2018-07-03T11:22:53.750Z,27.36
2018-07-03T11:23:53.673Z,25.69
2018-07-03T11:24:53.617Z,25.98
2018-07-03T11:25:53.547Z,26.17
2018-07-03T11:26:53.490Z,28.11
2018-07-03T11:27:53.425Z,29.18
2018-07-03T11:28:53.376Z,28.42
2018-07-03T11:29:53.289Z,27.34
2018-07-03T11:30:53.240Z,28.13
2018-07-03T11:31:53.162Z,29.68
2018-07-03T11:32:53.119Z,30.46
2018-07-03T11:33:53.039Z,32.21
2018-07-03T11:34:52.981Z,29.02
2018-07-03T11:35:52.910Z,31.64
2018-07-03T11:36:52.853Z,31.92
2018-07-03T11:37:52.782Z,30.08
2018-07-03T11:38:52.726Z,27.65
2018-07-03T11:39:52.654Z,27.65
2018-07-03T11:40:52.598Z,27.45
2018-07-03T11:41:52.532Z,29.11
2018-07-03T11:42:52.473Z,30.57
2018-07-03T11:43:52.404Z,32.13
2018-07-03T11:44:52.402Z,31.37
2018-07-03T11:45:52.273Z,29.79
2018-07-03T11:46:52.219Z,28.23
2018-07-03T11:47:52.139Z,30.08
2018-07-03T11:48:52.096Z,32.42
2018-07-03T11:49:52.019Z,34.37
2018-07-03T11:50:51.965Z,33.49
2018-07-03T11:51:51.897Z,27.95
2018-07-03T11:52:51.833Z,29.91
2018-07-03T11:53:51.765Z,28.64
2018-07-03T11:54:51.712Z,30.21
2018-07-03T11:55:51.637Z,31.38
2018-07-03T11:56:51.580Z,28.16
2018-07-03T11:57:51.513Z,27.68
2018-07-03T11:58:51.454Z,27.59
2018-07-03T11:59:51.382Z,29.44
2018-07-03T12:00:51.328Z,27.79
2018-07-03T12:01:51.257Z,26.72
2018-07-03T12:02:51.207Z,26.23
2018-07-03T12:03:51.134Z,27.50
2018-07-03T12:04:51.073Z,30.13
2018-07-03T12:05:51.004Z,28.57
2018-07-03T12:06:50.945Z,28.08
2018-07-03T12:07:50.880Z,28.08
2018-07-03T12:08:50.825Z,28.38
2018-07-03T12:09:50.790Z,27.79
2018-07-03T12:10:50.689Z,30.13
2018-07-03T12:11:50.703Z,29.44
2018-07-03T12:12:50.563Z,30.52
2018-07-03T12:13:50.613Z,30.52
2018-07-03T12:14:50.437Z,30.22
2018-07-03T12:15:50.420Z,31.98
2018-07-03T12:16:50.308Z,27.50
2018-07-03T12:17:50.332Z,26.12
2018-07-03T12:18:50.183Z,26.12
2018-07-03T12:19:50.178Z,25.42
2018-07-03T12:20:50.058Z,27.55
2018-07-03T12:21:50.060Z,30.39
2018-07-03T12:22:49.929Z,30.10
2018-07-03T12:23:49.965Z,27.18
2018-07-03T12:24:49.802Z,26.89
2018-07-03T12:25:49.776Z,26.89
2018-07-03T12:26:49.678Z,29.61
2018-07-03T12:27:49.686Z,30.19
2018-07-03T12:28:49.599Z,29.43
2018-07-03T12:29:49.597Z,29.33
2018-07-03T12:30:49.425Z,29.92
2018-07-03T12:31:49.408Z,27.58
2018-07-03T12:32:49.299Z,25.92
2018-07-03T12:33:49.317Z,25.92
2018-07-03T12:34:49.176Z,24.55
2018-07-03T12:35:49.230Z,25.41
2018-07-03T12:36:49.060Z,27.75
2018-07-03T12:37:49.039Z,29.69
2018-07-03T12:38:48.921Z,30.19
2018-07-03T12:39:48.948Z,30.88
2018-07-03T12:40:48.793Z,30.02
2018-07-03T12:41:48.759Z,30.60
2018-07-03T12:42:48.670Z,31.10
2018-07-03T12:43:48.670Z,29.06
2018-07-03T12:44:48.542Z,27.50
2018-07-03T12:45:48.582Z,29.25
2018-07-03T12:46:48.426Z,27.69
2018-07-03T12:47:48.393Z,25.75
2018-07-03T12:48:48.291Z,26.43
2018-07-03T12:49:48.347Z,26.73
2018-07-03T12:50:48.172Z,28.09
2018-07-03T12:51:48.208Z,29.07